Time;durP1;ratioP1;P1;durP2;ratioP2;P2;SDS_P1;SDS_P2;PMS_P1;PMS_P2;Temp;Humidity;BMP_temperature;BMP_pressure;BME280_temperature;BME280_humidity;BME280_pressure;Samples;Min_cycle;Max_cycle;Signal;HPM_P1;HPM_P2
2022/02/02 00:00:21;;;;;;;5.22;3.53;;;;;;;;;;7327290;19;162395;-13
2022/02/02 00:02:57;;;;;;;5.00;3.08;;;;;;;;;;7329727;19;153982;-14
2022/02/02 00:05:34;;;;;;;5.35;3.25;;;;;;;;;;7329636;19;153767;-13
2022/02/02 00:08:12;;;;;;;4.82;3.13;;;;;;;;;;7328198;19;161800;-13
2022/02/02 00:11:15;;;;;;;5.13;3.15;;;;;;;;;;7329113;19;162482;-13
2022/02/02 00:13:54;;;;;;;4.57;2.60;;;;;;;;;;7332194;19;154013;-15
2022/02/02 00:16:42;;;;;;;3.88;3.00;;;;;;;;;;7331716;19;153518;-14
2022/02/02 00:19:21;;;;;;;3.92;2.80;;;;;;;;;;7330570;19;162032;-14
2022/02/02 00:21:57;;;;;;;4.82;3.17;;;;;;;;;;7329814;19;162482;-14
2022/02/02 00:24:38;;;;;;;5.25;3.05;;;;;;;;;;7331946;19;153956;-14
2022/02/02 00:27:12;;;;;;;3.55;2.60;;;;;;;;;;7332077;19;153532;-13
2022/02/02 00:29:48;;;;;;;4.82;2.90;;;;;;;;;;7331626;19;161865;-14
2022/02/02 00:32:31;;;;;;;4.80;3.10;;;;;;;;;;7331933;19;162635;-14
2022/02/02 00:35:03;;;;;;;3.88;2.88;;;;;;;;;;7331009;19;154202;-14
2022/02/02 00:37:34;;;;;;;5.20;2.75;;;;;;;;;;7331533;19;153824;-20
2022/02/02 00:40:09;;;;;;;5.28;3.20;;;;;;;;;;7331517;19;161776;-13
2022/02/02 00:42:44;;;;;;;3.78;3.15;;;;;;;;;;7328641;19;163091;-14
2022/02/02 00:45:15;;;;;;;4.28;3.08;;;;;;;;;;7332010;19;154001;-16
2022/02/02 00:47:51;;;;;;;6.85;3.50;;;;;;;;;;7331360;19;154229;-14
2022/02/02 00:50:24;;;;;;;4.25;2.97;;;;;;;;;;7331071;19;161728;-13
2022/02/02 00:52:56;;;;;;;4.32;2.83;;;;;;;;;;7328157;19;162677;-14
2022/02/02 00:55:33;;;;;;;3.78;2.95;;;;;;;;;;7328424;19;154167;-13
2022/02/02 00:58:04;;;;;;;4.60;2.70;;;;;;;;;;7330088;19;153594;-13
2022/02/02 01:00:35;;;;;;;6.03;2.80;;;;;;;;;;7327163;19;161776;-13
2022/02/02 01:03:07;;;;;;;3.53;2.90;;;;;;;;;;7325827;19;162326;-13
2022/02/02 01:05:38;;;;;;;4.60;2.83;;;;;;;;;;7325293;19;154105;-13
2022/02/02 01:08:36;;;;;;;4.32;2.92;;;;;;;;;;7324759;19;153605;-11
2022/02/02 08:42:09;;;;;;;122.70;83.32;;;;;;;;;;7373739;19;132429;-15
2022/02/02 08:44:47;;;;;;;118.03;80.50;;;;;;;;;;7364538;19;154259;-14
2022/02/02 08:47:22;;;;;;;118.43;74.40;;;;;;;;;;7365563;19;161854;-14
2022/02/02 08:49:57;;;;;;;117.90;73.80;;;;;;;;;;7363837;19;162465;-14
2022/02/02 08:52:45;;;;;;;119.38;74.88;;;;;;;;;;7364640;19;153879;-14
2022/02/02 08:55:55;;;;;;;117.97;75.05;;;;;;;;;;7364324;19;153917;-13
2022/02/02 08:58:34;;;;;;;118.30;72.55;;;;;;;;;;7363785;19;161524;-14
2022/02/02 09:01:10;;;;;;;113.78;71.78;;;;;;;;;;7363583;19;162504;-14
2022/02/02 09:06:25;;;;;;;110.30;68.07;;;;;;;;;;7364139;19;153601;-20
2022/02/02 09:09:07;;;;;;;107.63;68.25;;;;;;;;;;7363803;19;162138;-14
2022/02/02 09:20:10;;;;;;;111.47;67.90;;;;;;;;;;7363230;19;161953;-14
2022/02/02 09:25:40;;;;;;;104.32;66.45;;;;;;;;;;7362320;19;153862;-14
2022/02/02 09:33:55;;;;;;;107.45;67.82;;;;;;;;;;7366674;19;162605;-13
2022/02/02 09:36:31;;;;;;;100.50;65.50;;;;;;;;;;7363322;19;153808;-14
2022/02/02 09:39:08;;;;;;;99.93;64.20;;;;;;;;;;7363183;19;153651;-14
2022/02/02 09:41:44;;;;;;;96.57;63.80;;;;;;;;;;7348143;19;161756;-15
2022/02/02 09:44:20;;;;;;;101.80;64.18;;;;;;;;;;7334088;19;162502;-15
2022/02/02 09:47:00;;;;;;;99.10;61.83;;;;;;;;;;7334196;19;153942;-16
2022/02/02 09:49:39;;;;;;;95.55;62.50;;;;;;;;;;7334273;19;154437;-15
2022/02/02 09:52:14;;;;;;;99.63;64.07;;;;;;;;;;7330139;19;161859;-15
2022/02/02 09:54:57;;;;;;;97.43;61.20;;;;;;;;;;7337525;19;162402;-15
2022/02/02 09:57:48;;;;;;;;;;;;;;;;;;7334321;19;154072;-15
2022/02/02 10:06:17;;;;;;;88.15;60.30;;;;;;;;;;7333082;19;162432;-15
2022/02/02 10:12:05;;;;;;;89.15;58.67;;;;;;;;;;7331504;19;154455;-15
2022/02/02 10:14:50;;;;;;;90.43;59.03;;;;;;;;;;7332939;19;162120;-15
2022/02/02 10:17:34;;;;;;;91.00;58.20;;;;;;;;;;7333964;19;162463;-14
2022/02/02 10:20:25;;;;;;;88.18;58.78;;;;;;;;;;7333047;19;154280;-15
2022/02/02 10:22:58;;;;;;;89.95;59.38;;;;;;;;;;7331940;19;154310;-15
2022/02/02 10:25:31;;;;;;;87.60;57.00;;;;;;;;;;7332655;19;162432;-15
2022/02/02 10:28:10;;;;;;;91.95;59.95;;;;;;;;;;7332529;19;162365;-15
2022/02/02 10:30:46;;;;;;;81.47;54.80;;;;;;;;;;7330973;19;154109;-14
2022/02/02 10:33:21;;;;;;;83.88;55.70;;;;;;;;;;7335261;19;153631;-14
2022/02/02 10:35:59;;;;;;;81.55;54.75;;;;;;;;;;7332039;19;162024;-14
2022/02/02 10:38:39;;;;;;;80.43;55.22;;;;;;;;;;7332142;19;162645;-14
2022/02/02 10:41:19;;;;;;;76.45;51.55;;;;;;;;;;7330767;19;154079;-15
2022/02/02 10:43:56;;;;;;;82.75;54.40;;;;;;;;;;7332655;19;153631;-19
2022/02/02 10:46:31;;;;;;;79.30;53.92;;;;;;;;;;7333783;19;161893;-13
2022/02/02 10:49:14;;;;;;;83.55;56.13;;;;;;;;;;7336392;19;162827;-14
2022/02/02 10:51:55;;;;;;;78.72;52.03;;;;;;;;;;7330642;19;153970;-13
2022/02/02 10:54:34;;;;;;;76.55;51.97;;;;;;;;;;7329605;19;153556;-14
2022/02/02 10:57:16;;;;;;;75.05;52.10;;;;;;;;;;7331688;19;161802;-14
2022/02/02 11:08:10;;;;;;;75.80;49.20;;;;;;;;;;7331332;19;161923;-13
2022/02/02 11:10:41;;;;;;;81.60;51.75;;;;;;;;;;7331176;19;162339;-14
2022/02/02 11:13:14;;;;;;;72.60;49.72;;;;;;;;;;7331717;19;154022;-14
2022/02/02 11:15:50;;;;;;;77.85;51.63;;;;;;;;;;7330498;19;153672;-14
2022/02/02 11:18:26;;;;;;;72.10;51.60;;;;;;;;;;7334062;19;161709;-14
2022/02/02 11:21:08;;;;;;;73.60;50.83;;;;;;;;;;7331014;19;162485;-14
2022/02/02 11:23:48;;;;;;;72.85;48.63;;;;;;;;;;7331538;19;154057;-13
2022/02/02 11:26:40;;;;;;;75.65;50.40;;;;;;;;;;7331434;19;153843;-14
2022/02/02 11:29:12;;;;;;;68.43;46.70;;;;;;;;;;7331006;19;161907;-14
2022/02/02 11:32:05;;;;;;;70.07;48.97;;;;;;;;;;7329773;19;162266;-14
2022/02/02 11:34:40;;;;;;;71.53;48.33;;;;;;;;;;7331232;19;153930;-16
2022/02/02 11:37:13;;;;;;;67.85;46.42;;;;;;;;;;7330142;19;153569;-14
2022/02/02 11:39:57;;;;;;;66.00;46.07;;;;;;;;;;7330261;19;161830;-14
2022/02/02 11:42:55;;;;;;;65.53;46.80;;;;;;;;;;7332011;19;162316;-14
2022/02/02 11:45:40;;;;;;;65.47;45.80;;;;;;;;;;7332256;19;154190;-15
2022/02/02 11:48:18;;;;;;;67.50;46.47;;;;;;;;;;7333556;19;153863;-14
2022/02/02 11:50:57;;;;;;;65.32;45.70;;;;;;;;;;7330786;19;162100;-14
2022/02/02 11:54:01;;;;;;;62.58;45.83;;;;;;;;;;7327546;19;162426;-14
2022/02/02 11:57:05;;;;;;;63.85;45.55;;;;;;;;;;7329338;19;153967;-15
2022/02/02 11:59:56;;;;;;;68.57;46.90;;;;;;;;;;7329196;19;153718;-14
2022/02/02 12:02:48;;;;;;;62.97;43.80;;;;;;;;;;7331164;19;161873;-14
2022/02/02 12:05:35;;;;;;;64.53;44.90;;;;;;;;;;7329213;19;162665;-14
2022/02/02 12:08:21;;;;;;;64.20;43.90;;;;;;;;;;7330329;19;153951;-15
2022/02/02 12:11:19;;;;;;;63.20;44.40;;;;;;;;;;7328945;19;153857;-16
2022/02/02 12:47:25;;;;;;;33.25;21.48;;;;;;;;;;7331147;19;161574;-14
2022/02/02 12:50:14;;;;;;;30.80;22.92;;;;;;;;;;7327078;19;162494;-14
2022/02/02 12:58:26;;;;;;;;;;;;;;;;;;7331405;19;161980;-14
2022/02/02 13:01:12;;;;;;;38.78;23.88;;;;;;;;;;7327265;19;162604;-14
2022/02/02 13:03:46;;;;;;;34.63;24.05;;;;;;;;;;7327641;19;153935;-14
2022/02/02 13:06:21;;;;;;;33.00;22.60;;;;;;;;;;7327523;19;153998;-13
2022/02/02 13:08:54;;;;;;;30.45;22.50;;;;;;;;;;7327082;19;161960;-15
2022/02/02 13:11:31;;;;;;;32.63;22.65;;;;;;;;;;7326899;19;162381;-14
2022/02/02 13:14:10;;;;;;;32.15;22.35;;;;;;;;;;7324573;19;154138;-14
2022/02/02 13:16:41;;;;;;;30.20;21.95;;;;;;;;;;7327155;19;154382;-14
2022/02/02 13:19:28;;;;;;;32.60;21.48;;;;;;;;;;7332456;19;161923;-15
2022/02/02 13:22:07;;;;;;;30.77;22.05;;;;;;;;;;7334003;19;162470;-14
2022/02/02 13:24:40;;;;;;;31.35;21.08;;;;;;;;;;7334130;19;153956;-14
2022/02/02 13:27:18;;;;;;;27.58;19.77;;;;;;;;;;7330029;19;153636;-15
2022/02/02 13:29:53;;;;;;;26.58;18.92;;;;;;;;;;7336683;19;162076;-14
2022/02/02 13:32:38;;;;;;;28.83;20.67;;;;;;;;;;7336914;19;162295;-15
2022/02/02 13:35:19;;;;;;;28.45;20.63;;;;;;;;;;7335470;19;154176;-14
2022/02/02 13:38:03;;;;;;;26.52;19.42;;;;;;;;;;7336584;19;154459;-15
2022/02/02 13:43:39;;;;;;;26.98;19.05;;;;;;;;;;7334488;19;162524;-15
2022/02/02 13:52:20;;;;;;;;;;;;;;;;;;7332801;19;161541;-15
2022/02/02 13:55:41;;;;;;;29.33;19.05;;;;;;;;;;7336977;19;162581;-14
2022/02/02 14:01:08;;;;;;;24.42;17.38;;;;;;;;;;7336948;19;153593;-17
2022/02/02 14:06:36;;;;;;;29.65;18.08;;;;;;;;;;7333989;19;162246;-15
2022/02/02 14:09:17;;;;;;;27.15;17.75;;;;;;;;;;7333387;19;154046;-15
2022/02/02 14:26:07;;;;;;;24.15;16.95;;;;;;;;;;7332709;19;161848;-15
2022/02/02 14:31:26;;;;;;;23.35;15.65;;;;;;;;;;7332942;19;153925;-14
2022/02/02 14:34:00;;;;;;;24.15;17.02;;;;;;;;;;7333532;19;153594;-25
2022/02/02 14:36:35;;;;;;;21.50;15.65;;;;;;;;;;7336627;19;161731;-14
2022/02/02 14:39:18;;;;;;;23.92;15.80;;;;;;;;;;7336807;19;162557;-14
2022/02/02 14:41:56;;;;;;;20.75;15.40;;;;;;;;;;7330067;19;154066;-14
2022/02/02 14:44:32;;;;;;;22.20;14.65;;;;;;;;;;7331066;19;153608;-14
2022/02/02 14:47:28;;;;;;;21.63;15.35;;;;;;;;;;7331395;19;161811;-14
2022/02/02 14:50:06;;;;;;;20.60;14.65;;;;;;;;;;7332032;19;162700;-15
2022/02/02 14:52:50;;;;;;;31.83;16.75;;;;;;;;;;7331524;19;154006;-16
2022/02/02 15:28:49;;;;;;;19.88;14.65;;;;;;;;;;7330161;19;153565;-15
2022/02/02 15:31:24;;;;;;;19.17;13.90;;;;;;;;;;7330954;19;161809;-14
2022/02/02 15:33:57;;;;;;;17.58;13.77;;;;;;;;;;7329761;19;162517;-15
2022/02/02 15:39:19;;;;;;;20.05;13.93;;;;;;;;;;7328345;19;153937;-15
2022/02/02 15:42:12;;;;;;;;;;;;;;;;;;7328305;19;161549;-14
2022/02/02 15:58:28;;;;;;;16.75;13.48;;;;;;;;;;7329919;19;153919;-14
2022/02/02 16:03:51;;;;;;;19.45;13.48;;;;;;;;;;7328728;19;161955;-14
2022/02/02 16:06:25;;;;;;;18.13;12.63;;;;;;;;;;7329359;19;162388;-14
2022/02/02 16:09:11;;;;;;;17.38;13.70;;;;;;;;;;7329886;19;153726;-15
2022/02/02 16:11:45;;;;;;;17.10;13.32;;;;;;;;;;7329550;19;153634;-14
2022/02/02 16:14:24;;;;;;;17.92;13.88;;;;;;;;;;7328499;19;162149;-14
2022/02/02 16:17:16;;;;;;;17.88;12.75;;;;;;;;;;7329341;19;162603;-15
2022/02/02 16:25:35;;;;;;;15.80;12.80;;;;;;;;;;7329149;19;161860;-15
2022/02/02 16:36:18;;;;;;;14.05;12.35;;;;;;;;;;7329015;19;162232;-15
2022/02/02 16:38:58;;;;;;;18.40;13.13;;;;;;;;;;7328555;19;162386;-14
2022/02/02 16:44:15;;;;;;;14.60;11.10;;;;;;;;;;7328736;19;153621;-14
2022/02/02 16:46:47;;;;;;;16.23;12.32;;;;;;;;;;7328384;19;162082;-14
2022/02/02 16:49:18;;;;;;;14.70;12.05;;;;;;;;;;7328456;19;162453;-15
2022/02/02 16:51:53;;;;;;;14.65;11.38;;;;;;;;;;7330701;19;154475;-15
2022/02/02 16:54:28;;;;;;;14.25;12.02;;;;;;;;;;7334941;19;153674;-14
2022/02/02 16:57:13;;;;;;;14.88;11.38;;;;;;;;;;7335196;19;161854;-14
2022/02/02 17:33:02;;;;;;;14.45;11.30;;;;;;;;;;7332088;19;162953;-14
2022/02/02 17:35:54;;;;;;;13.38;11.40;;;;;;;;;;7332890;19;153968;-14
2022/02/02 17:38:33;;;;;;;15.10;11.35;;;;;;;;;;7334454;19;153873;-14
2022/02/02 17:44:15;;;;;;;16.23;11.02;;;;;;;;;;7330884;19;162573;-14
2022/02/02 18:03:57;;;;;;;13.75;10.43;;;;;;;;;;7332408;19;162076;-14
2022/02/02 18:20:13;;;;;;;11.43;9.63;;;;;;;;;;7333510;19;153956;-14
2022/02/02 18:22:50;;;;;;;14.05;11.27;;;;;;;;;;7333348;19;153644;-15
2022/02/02 18:25:29;;;;;;;12.20;9.75;;;;;;;;;;7333062;19;161958;-14
2022/02/02 18:28:08;;;;;;;12.82;10.43;;;;;;;;;;7332856;19;162687;-14
2022/02/02 18:30:52;;;;;;;13.07;9.80;;;;;;;;;;7333231;19;154029;-14
2022/02/02 18:33:38;;;;;;;12.15;10.07;;;;;;;;;;7332803;19;153592;-14
2022/02/02 18:36:23;;;;;;;11.07;8.73;;;;;;;;;;7329604;19;162089;-14
2022/02/02 18:45:03;;;;;;;12.02;9.73;;;;;;;;;;7332123;19;153592;-14
2022/02/02 18:50:51;;;;;;;12.55;9.82;;;;;;;;;;7330935;19;162471;-15
2022/02/02 18:56:24;;;;;;;12.85;10.18;;;;;;;;;;7330556;19;153636;-15
2022/02/02 18:59:04;;;;;;;10.73;9.35;;;;;;;;;;7330371;19;162077;-14
2022/02/02 19:01:44;;;;;;;11.98;9.55;;;;;;;;;;7331623;19;162538;-15
2022/02/02 19:04:40;;;;;;;11.43;9.55;;;;;;;;;;7331955;19;153983;-14
2022/02/02 19:40:23;;;;;;;10.60;9.15;;;;;;;;;;7329911;19;153588;-15
2022/02/02 19:56:55;;;;;;;9.65;8.43;;;;;;;;;;7328438;19;162367;-14
2022/02/02 20:02:34;;;;;;;10.60;9.43;;;;;;;;;;7329212;19;153611;-15
2022/02/02 20:08:05;;;;;;;8.85;7.45;;;;;;;;;;7329283;19;162827;-15
2022/02/02 20:10:49;;;;;;;11.15;8.65;;;;;;;;;;7330199;19;153941;-16
2022/02/02 20:13:21;;;;;;;12.00;9.38;;;;;;;;;;7329977;19;153547;-14
2022/02/02 20:15:53;;;;;;;9.25;8.27;;;;;;;;;;7329321;19;162498;-15
2022/02/02 20:18:25;;;;;;;9.55;8.18;;;;;;;;;;7328268;19;162593;-16
2022/02/02 20:20:59;;;;;;;9.27;8.00;;;;;;;;;;7330119;19;154016;-14
2022/02/02 20:23:30;;;;;;;10.13;8.45;;;;;;;;;;7329670;19;153558;-16
2022/02/02 20:26:07;;;;;;;10.90;8.70;;;;;;;;;;7328954;19;161841;-14
2022/02/02 20:28:38;;;;;;;9.65;8.23;;;;;;;;;;7329168;19;162356;-14
2022/02/02 20:31:10;;;;;;;9.30;8.25;;;;;;;;;;7329561;19;154153;-14
2022/02/02 20:33:41;;;;;;;9.38;7.03;;;;;;;;;;7331097;19;153539;-15
2022/02/02 20:36:13;;;;;;;9.15;7.95;;;;;;;;;;7328136;19;161813;-14
2022/02/02 20:38:44;;;;;;;10.07;7.78;;;;;;;;;;7332931;19;162661;-14
2022/02/02 20:41:18;;;;;;;8.63;7.68;;;;;;;;;;7326121;19;154036;-15
2022/02/02 20:43:55;;;;;;;11.02;8.13;;;;;;;;;;7328994;19;153575;-15
2022/02/02 21:06:02;;;;;;;20.73;15.90;;;;;;;;;;7329074;19;153637;-13
2022/02/02 21:08:59;;;;;;;23.92;17.52;;;;;;;;;;7327786;19;161623;-16
2022/02/02 21:14:27;;;;;;;20.23;15.23;;;;;;;;;;7328461;19;154317;-14
2022/02/02 21:17:01;;;;;;;22.33;15.88;;;;;;;;;;7326863;19;153629;-14
2022/02/02 21:19:48;;;;;;;28.25;21.63;;;;;;;;;;7326003;19;162244;-14
2022/02/02 21:22:20;;;;;;;21.52;17.45;;;;;;;;;;7327254;19;162593;-15
2022/02/02 21:25:05;;;;;;;25.53;19.90;;;;;;;;;;7328045;19;153908;-15
2022/02/02 21:27:41;;;;;;;22.40;17.92;;;;;;;;;;7327423;19;153641;-14
2022/02/02 21:30:15;;;;;;;25.48;16.73;;;;;;;;;;7326991;19;161891;-14
2022/02/02 21:32:46;;;;;;;23.27;16.65;;;;;;;;;;7328888;19;162357;-15
2022/02/02 21:35:17;;;;;;;23.02;16.88;;;;;;;;;;7328900;19;154185;-14
2022/02/02 21:37:51;;;;;;;23.83;17.15;;;;;;;;;;7331047;19;153576;-15
2022/02/02 21:40:26;;;;;;;23.60;16.98;;;;;;;;;;7335884;19;161900;-16
2022/02/02 21:42:59;;;;;;;20.75;16.52;;;;;;;;;;7336561;19;162421;-15
2022/02/02 21:45:34;;;;;;;19.42;15.88;;;;;;;;;;7337077;19;153982;-14
2022/02/02 21:48:06;;;;;;;25.75;17.40;;;;;;;;;;7335876;19;153659;-14
2022/02/02 21:50:47;;;;;;;20.75;16.90;;;;;;;;;;7336915;19;161760;-14
2022/02/02 21:53:19;;;;;;;24.00;17.17;;;;;;;;;;7335459;19;162470;-14
2022/02/02 21:55:50;;;;;;;20.75;16.17;;;;;;;;;;7336569;19;153999;-15
2022/02/02 21:58:23;;;;;;;20.15;16.25;;;;;;;;;;7334603;19;153577;-14
2022/02/02 22:00:58;;;;;;;20.33;16.95;;;;;;;;;;7336484;19;161876;-15
2022/02/02 22:03:29;;;;;;;39.38;28.95;;;;;;;;;;7336596;19;162502;-16
2022/02/02 22:06:01;;;;;;;35.50;25.45;;;;;;;;;;7335341;19;154367;-15
2022/02/02 22:08:32;;;;;;;25.80;21.13;;;;;;;;;;7333678;19;153555;-14
2022/02/02 22:11:03;;;;;;;22.85;19.02;;;;;;;;;;7336038;19;161814;-15
2022/02/02 22:13:42;;;;;;;25.05;19.25;;;;;;;;;;7335834;19;162135;-15
2022/02/02 22:16:21;;;;;;;24.95;18.35;;;;;;;;;;7336016;19;154081;-14
2022/02/02 22:18:53;;;;;;;22.67;18.35;;;;;;;;;;7333956;19;153962;-14
2022/02/02 22:21:26;;;;;;;21.63;18.45;;;;;;;;;;7336124;19;161742;-15
2022/02/02 22:23:59;;;;;;;24.50;18.45;;;;;;;;;;7335674;19;162463;-14
2022/02/02 22:26:34;;;;;;;21.50;17.85;;;;;;;;;;7334063;19;153997;-15
2022/02/02 22:29:05;;;;;;;23.67;18.80;;;;;;;;;;7335051;19;153698;-21
2022/02/02 22:31:39;;;;;;;25.58;19.13;;;;;;;;;;7335646;19;161438;-15
2022/02/02 22:34:11;;;;;;;21.90;17.65;;;;;;;;;;7335190;19;163066;-15
2022/02/02 22:36:42;;;;;;;22.58;17.40;;;;;;;;;;7336274;19;153939;-15
2022/02/02 22:39:14;;;;;;;20.52;17.98;;;;;;;;;;7333005;19;153689;-15
2022/02/02 22:41:50;;;;;;;22.60;18.55;;;;;;;;;;7331746;19;161474;-15
2022/02/02 22:44:22;;;;;;;22.52;17.45;;;;;;;;;;7335219;19;162508;-15
2022/02/02 22:47:02;;;;;;;22.70;17.88;;;;;;;;;;7335100;19;154003;-15
2022/02/02 22:49:35;;;;;;;22.98;18.00;;;;;;;;;;7333132;19;153688;-14
2022/02/02 22:52:09;;;;;;;23.42;17.13;;;;;;;;;;7335331;19;161576;-15
2022/02/02 22:54:41;;;;;;;20.52;17.20;;;;;;;;;;7334974;19;163090;-14
2022/02/02 22:57:13;;;;;;;24.40;18.27;;;;;;;;;;7334841;19;154234;-15
2022/02/02 22:59:48;;;;;;;18.58;15.80;;;;;;;;;;7332702;19;153649;-15
2022/02/02 23:02:41;;;;;;;19.85;15.95;;;;;;;;;;7334486;19;161803;-14
2022/02/02 23:05:13;;;;;;;22.50;16.88;;;;;;;;;;7334017;19;163515;-13
2022/02/02 23:07:44;;;;;;;20.85;17.65;;;;;;;;;;7335087;19;153942;-14
2022/02/02 23:10:19;;;;;;;23.15;17.08;;;;;;;;;;7334197;19;153579;-13
2022/02/02 23:12:51;;;;;;;21.33;15.82;;;;;;;;;;7333543;19;161815;-14
2022/02/02 23:15:31;;;;;;;18.35;15.50;;;;;;;;;;7334433;19;162874;-13
2022/02/02 23:18:13;;;;;;;17.73;15.55;;;;;;;;;;7333443;19;154072;-14
2022/02/02 23:20:48;;;;;;;23.10;16.45;;;;;;;;;;7334591;19;153530;-14
2022/02/02 23:23:25;;;;;;;19.55;16.45;;;;;;;;;;7333881;19;161822;-15
2022/02/02 23:25:59;;;;;;;20.80;16.63;;;;;;;;;;7332902;19;162641;-16
2022/02/02 23:28:35;;;;;;;22.00;16.13;;;;;;;;;;7331292;19;154158;-15
2022/02/02 23:31:10;;;;;;;19.38;15.85;;;;;;;;;;7331323;19;153561;-14
2022/02/02 23:33:45;;;;;;;18.05;15.35;;;;;;;;;;7330820;19;161938;-15
2022/02/02 23:36:22;;;;;;;19.63;15.18;;;;;;;;;;7330062;19;162410;-15
2022/02/02 23:38:53;;;;;;;18.50;16.45;;;;;;;;;;7329639;19;154003;-15
2022/02/02 23:44:13;;;;;;;20.00;14.95;;;;;;;;;;7328375;19;161807;-14
2022/02/02 23:46:51;;;;;;;19.95;15.38;;;;;;;;;;7330153;19;162443;-15
2022/02/02 23:49:36;;;;;;;18.13;16.20;;;;;;;;;;7330648;19;154531;-15
2022/02/02 23:52:10;;;;;;;17.38;14.75;;;;;;;;;;7330571;19;153730;-15
2022/02/02 23:54:46;;;;;;;16.90;14.55;;;;;;;;;;7329819;19;161895;-15
2022/02/02 23:57:33;;;;;;;19.70;14.02;;;;;;;;;;7330009;19;162679;-14
